Terminal Aerodrome Forecast
Issued by NWS Jackson, MS

Home | Current Version | Previous Version | Text Only | Print | Product List | Glossary On
Versions: 1 2 3 4 5 6 7 8 9 10 11 12 13
764
FTUS44 KJAN 281753
TAFGLH
TAF
KGLH 281753Z 2818/2918 22010G17KT P6SM BKN050 BKN100
     FM282200 23012KT P6SM OVC100
     FM290200 25005KT P6SM VCSH BKN070
     FM290700 24003KT 6SM BR VCTS BKN050CB=

USA.gov is the U.S. government's official web portal to all federal, state and local government web resources and services.